sensor_id;sensor_type;location;lat;lon;timestamp;P1;durP1;ratioP1;P2;durP2;ratioP2
52734;SDS011;38631;47.572;10.704;2023-03-15T00:01:24;13.13;;;6.13;;
52734;SDS011;38631;47.572;10.704;2023-03-15T00:03:51;7.70;;;2.33;;
52734;SDS011;38631;47.572;10.704;2023-03-15T00:06:18;5.90;;;3.08;;
52734;SDS011;38631;47.572;10.704;2023-03-15T00:08:44;7.00;;;3.80;;
52734;SDS011;38631;47.572;10.704;2023-03-15T00:11:11;3.53;;;1.50;;
52734;SDS011;38631;47.572;10.704;2023-03-15T00:13:37;2.30;;;0.98;;
52734;SDS011;38631;47.572;10.704;2023-03-15T00:16:02;2.85;;;0.85;;
52734;SDS011;38631;47.572;10.704;2023-03-15T00:18:28;3.00;;;1.52;;
52734;SDS011;38631;47.572;10.704;2023-03-15T00:20:53;0.82;;;0.50;;
52734;SDS011;38631;47.572;10.704;2023-03-15T00:23:19;1.20;;;0.52;;
52734;SDS011;38631;47.572;10.704;2023-03-15T00:25:45;1.73;;;0.75;;
52734;SDS011;38631;47.572;10.704;2023-03-15T00:28:12;3.45;;;1.15;;
52734;SDS011;38631;47.572;10.704;2023-03-15T00:30:38;2.17;;;1.10;;
52734;SDS011;38631;47.572;10.704;2023-03-15T00:33:04;1.38;;;0.50;;
52734;SDS011;38631;47.572;10.704;2023-03-15T00:35:30;2.47;;;0.75;;
52734;SDS011;38631;47.572;10.704;2023-03-15T00:37:57;1.52;;;0.57;;
52734;SDS011;38631;47.572;10.704;2023-03-15T00:40:23;3.35;;;0.98;;
52734;SDS011;38631;47.572;10.704;2023-03-15T00:42:49;0.70;;;0.20;;
52734;SDS011;38631;47.572;10.704;2023-03-15T00:45:15;1.08;;;0.35;;
52734;SDS011;38631;47.572;10.704;2023-03-15T00:47:42;1.15;;;0.50;;
52734;SDS011;38631;47.572;10.704;2023-03-15T00:50:07;0.25;;;0.22;;
52734;SDS011;38631;47.572;10.704;2023-03-15T00:52:34;1.50;;;0.50;;
52734;SDS011;38631;47.572;10.704;2023-03-15T00:55:00;0.88;;;0.43;;
52734;SDS011;38631;47.572;10.704;2023-03-15T00:57:26;1.92;;;0.50;;
52734;SDS011;38631;47.572;10.704;2023-03-15T00:59:51;1.27;;;0.47;;
52734;SDS011;38631;47.572;10.704;2023-03-15T01:02:17;2.28;;;0.40;;
52734;SDS011;38631;47.572;10.704;2023-03-15T01:04:46;0.68;;;0.30;;
52734;SDS011;38631;47.572;10.704;2023-03-15T01:07:12;1.20;;;0.40;;
52734;SDS011;38631;47.572;10.704;2023-03-15T01:09:37;2.92;;;0.40;;
52734;SDS011;38631;47.572;10.704;2023-03-15T01:12:03;1.13;;;0.35;;
52734;SDS011;38631;47.572;10.704;2023-03-15T01:14:28;2.33;;;1.13;;
52734;SDS011;38631;47.572;10.704;2023-03-15T01:16:54;1.02;;;0.57;;
52734;SDS011;38631;47.572;10.704;2023-03-15T01:19:19;0.28;;;0.20;;
52734;SDS011;38631;47.572;10.704;2023-03-15T01:21:45;1.08;;;0.20;;
52734;SDS011;38631;47.572;10.704;2023-03-15T01:24:12;0.10;;;0.10;;
52734;SDS011;38631;47.572;10.704;2023-03-15T01:26:38;0.35;;;0.13;;
52734;SDS011;38631;47.572;10.704;2023-03-15T01:29:04;0.20;;;0.20;;
52734;SDS011;38631;47.572;10.704;2023-03-15T01:31:30;0.73;;;0.20;;
52734;SDS011;38631;47.572;10.704;2023-03-15T01:33:56;0.30;;;0.20;;
52734;SDS011;38631;47.572;10.704;2023-03-15T01:36:22;1.60;;;1.20;;
52734;SDS011;38631;47.572;10.704;2023-03-15T01:38:48;0.32;;;0.30;;
52734;SDS011;38631;47.572;10.704;2023-03-15T01:41:15;0.70;;;0.20;;
52734;SDS011;38631;47.572;10.704;2023-03-15T01:43:42;0.10;;;0.10;;
52734;SDS011;38631;47.572;10.704;2023-03-15T01:51:36;0.17;;;0.10;;
52734;SDS011;38631;47.572;10.704;2023-03-15T01:57:12;0.20;;;0.10;;
52734;SDS011;38631;47.572;10.704;2023-03-15T01:59:48;0.98;;;0.30;;
52734;SDS011;38631;47.572;10.704;2023-03-15T02:02:22;0.52;;;0.10;;
52734;SDS011;38631;47.572;10.704;2023-03-15T02:04:55;0.50;;;0.22;;
52734;SDS011;38631;47.572;10.704;2023-03-15T02:07:23;0.70;;;0.20;;
52734;SDS011;38631;47.572;10.704;2023-03-15T02:10:01;0.25;;;0.22;;
52734;SDS011;38631;47.572;10.704;2023-03-15T02:12:30;0.20;;;0.20;;
52734;SDS011;38631;47.572;10.704;2023-03-15T02:14:58;0.20;;;0.20;;
52734;SDS011;38631;47.572;10.704;2023-03-15T02:17:32;0.17;;;0.17;;
52734;SDS011;38631;47.572;10.704;2023-03-15T02:22:49;0.20;;;0.15;;
52734;SDS011;38631;47.572;10.704;2023-03-15T02:28:03;0.52;;;0.17;;
52734;SDS011;38631;47.572;10.704;2023-03-15T02:30:31;0.10;;;0.10;;
52734;SDS011;38631;47.572;10.704;2023-03-15T02:32:57;0.20;;;0.20;;
52734;SDS011;38631;47.572;10.704;2023-03-15T02:35:26;0.17;;;0.17;;
52734;SDS011;38631;47.572;10.704;2023-03-15T02:37:55;0.10;;;0.10;;
52734;SDS011;38631;47.572;10.704;2023-03-15T02:40:22;0.20;;;0.20;;
52734;SDS011;38631;47.572;10.704;2023-03-15T02:42:53;0.10;;;0.10;;
52734;SDS011;38631;47.572;10.704;2023-03-15T02:47:56;0.20;;;0.20;;
52734;SDS011;38631;47.572;10.704;2023-03-15T02:50:21;0.47;;;0.38;;
52734;SDS011;38631;47.572;10.704;2023-03-15T02:52:47;0.43;;;0.40;;
52734;SDS011;38631;47.572;10.704;2023-03-15T02:55:12;1.42;;;0.13;;
52734;SDS011;38631;47.572;10.704;2023-03-15T02:57:38;0.30;;;0.10;;
52734;SDS011;38631;47.572;10.704;2023-03-15T03:00:03;0.45;;;0.30;;
52734;SDS011;38631;47.572;10.704;2023-03-15T03:02:38;1.13;;;0.30;;
52734;SDS011;38631;47.572;10.704;2023-03-15T03:05:04;1.15;;;0.20;;
52734;SDS011;38631;47.572;10.704;2023-03-15T03:07:29;0.90;;;0.70;;
52734;SDS011;38631;47.572;10.704;2023-03-15T03:09:54;0.93;;;0.85;;
52734;SDS011;38631;47.572;10.704;2023-03-15T03:12:20;0.90;;;0.80;;
52734;SDS011;38631;47.572;10.704;2023-03-15T03:14:46;1.25;;;1.10;;
52734;SDS011;38631;47.572;10.704;2023-03-15T03:17:11;1.25;;;1.02;;
52734;SDS011;38631;47.572;10.704;2023-03-15T03:19:36;1.23;;;1.02;;
52734;SDS011;38631;47.572;10.704;2023-03-15T03:22:02;1.42;;;1.10;;
52734;SDS011;38631;47.572;10.704;2023-03-15T03:24:28;1.95;;;1.10;;
52734;SDS011;38631;47.572;10.704;2023-03-15T03:26:53;1.73;;;1.30;;
52734;SDS011;38631;47.572;10.704;2023-03-15T03:29:21;1.42;;;1.30;;
52734;SDS011;38631;47.572;10.704;2023-03-15T03:31:47;1.63;;;1.50;;
52734;SDS011;38631;47.572;10.704;2023-03-15T03:34:13;2.00;;;1.67;;
52734;SDS011;38631;47.572;10.704;2023-03-15T03:36:39;2.10;;;1.63;;
52734;SDS011;38631;47.572;10.704;2023-03-15T03:39:05;2.22;;;1.48;;
52734;SDS011;38631;47.572;10.704;2023-03-15T03:41:30;2.28;;;1.80;;
52734;SDS011;38631;47.572;10.704;2023-03-15T03:43:56;1.88;;;1.70;;
52734;SDS011;38631;47.572;10.704;2023-03-15T03:46:21;3.00;;;2.05;;
52734;SDS011;38631;47.572;10.704;2023-03-15T03:48:46;3.08;;;2.05;;
52734;SDS011;38631;47.572;10.704;2023-03-15T03:51:12;2.20;;;1.75;;
52734;SDS011;38631;47.572;10.704;2023-03-15T03:53:37;2.85;;;1.90;;
52734;SDS011;38631;47.572;10.704;2023-03-15T03:56:03;4.45;;;2.30;;
52734;SDS011;38631;47.572;10.704;2023-03-15T03:58:30;2.58;;;1.75;;
52734;SDS011;38631;47.572;10.704;2023-03-15T04:00:55;3.17;;;2.10;;
52734;SDS011;38631;47.572;10.704;2023-03-15T04:03:21;2.70;;;1.98;;
52734;SDS011;38631;47.572;10.704;2023-03-15T04:05:54;2.92;;;2.25;;
52734;SDS011;38631;47.572;10.704;2023-03-15T04:08:20;2.77;;;2.10;;
52734;SDS011;38631;47.572;10.704;2023-03-15T04:10:53;2.28;;;2.03;;
52734;SDS011;38631;47.572;10.704;2023-03-15T04:13:20;2.30;;;2.05;;
52734;SDS011;38631;47.572;10.704;2023-03-15T04:15:46;2.65;;;2.05;;
52734;SDS011;38631;47.572;10.704;2023-03-15T04:18:12;2.95;;;2.58;;
52734;SDS011;38631;47.572;10.704;2023-03-15T04:20:39;3.80;;;2.65;;
52734;SDS011;38631;47.572;10.704;2023-03-15T04:23:11;3.60;;;2.38;;
52734;SDS011;38631;47.572;10.704;2023-03-15T04:25:40;3.60;;;2.78;;
52734;SDS011;38631;47.572;10.704;2023-03-15T04:28:06;3.15;;;2.67;;
52734;SDS011;38631;47.572;10.704;2023-03-15T04:30:34;3.28;;;2.80;;
52734;SDS011;38631;47.572;10.704;2023-03-15T04:33:00;4.60;;;3.40;;
52734;SDS011;38631;47.572;10.704;2023-03-15T04:35:27;4.18;;;3.03;;
52734;SDS011;38631;47.572;10.704;2023-03-15T04:37:55;4.90;;;2.70;;
52734;SDS011;38631;47.572;10.704;2023-03-15T04:40:21;4.07;;;3.10;;
52734;SDS011;38631;47.572;10.704;2023-03-15T04:42:57;5.47;;;2.95;;
52734;SDS011;38631;47.572;10.704;2023-03-15T04:45:22;4.68;;;2.92;;
52734;SDS011;38631;47.572;10.704;2023-03-15T04:47:48;4.18;;;2.60;;
52734;SDS011;38631;47.572;10.704;2023-03-15T04:50:14;3.42;;;2.50;;
52734;SDS011;38631;47.572;10.704;2023-03-15T04:52:40;3.80;;;2.78;;
52734;SDS011;38631;47.572;10.704;2023-03-15T04:55:05;3.92;;;2.85;;
52734;SDS011;38631;47.572;10.704;2023-03-15T04:57:31;5.10;;;3.00;;
52734;SDS011;38631;47.572;10.704;2023-03-15T04:59:56;5.07;;;3.05;;
52734;SDS011;38631;47.572;10.704;2023-03-15T05:02:21;4.65;;;2.92;;
52734;SDS011;38631;47.572;10.704;2023-03-15T05:04:47;5.82;;;3.13;;
52734;SDS011;38631;47.572;10.704;2023-03-15T05:07:12;4.95;;;3.10;;
52734;SDS011;38631;47.572;10.704;2023-03-15T05:09:38;11.18;;;6.35;;
52734;SDS011;38631;47.572;10.704;2023-03-15T05:12:04;10.50;;;5.90;;
52734;SDS011;38631;47.572;10.704;2023-03-15T05:14:30;5.53;;;3.75;;
52734;SDS011;38631;47.572;10.704;2023-03-15T05:16:56;3.78;;;3.20;;
52734;SDS011;38631;47.572;10.704;2023-03-15T05:19:23;4.60;;;2.90;;
52734;SDS011;38631;47.572;10.704;2023-03-15T05:21:52;4.60;;;2.67;;
52734;SDS011;38631;47.572;10.704;2023-03-15T05:24:18;4.72;;;2.63;;
52734;SDS011;38631;47.572;10.704;2023-03-15T05:26:44;5.15;;;3.33;;
52734;SDS011;38631;47.572;10.704;2023-03-15T05:29:10;7.78;;;3.25;;
52734;SDS011;38631;47.572;10.704;2023-03-15T05:31:37;4.95;;;2.63;;
52734;SDS011;38631;47.572;10.704;2023-03-15T05:34:02;5.30;;;3.50;;
52734;SDS011;38631;47.572;10.704;2023-03-15T05:36:29;5.75;;;3.63;;
52734;SDS011;38631;47.572;10.704;2023-03-15T05:38:55;4.75;;;3.70;;
52734;SDS011;38631;47.572;10.704;2023-03-15T05:41:20;4.72;;;3.55;;
52734;SDS011;38631;47.572;10.704;2023-03-15T05:43:46;6.65;;;3.30;;
52734;SDS011;38631;47.572;10.704;2023-03-15T05:46:11;4.28;;;3.45;;
52734;SDS011;38631;47.572;10.704;2023-03-15T05:48:37;7.70;;;4.25;;
52734;SDS011;38631;47.572;10.704;2023-03-15T05:51:02;7.53;;;3.72;;
52734;SDS011;38631;47.572;10.704;2023-03-15T05:53:27;6.20;;;4.35;;
52734;SDS011;38631;47.572;10.704;2023-03-15T05:55:53;6.82;;;4.30;;
52734;SDS011;38631;47.572;10.704;2023-03-15T05:58:18;7.88;;;4.72;;
52734;SDS011;38631;47.572;10.704;2023-03-15T06:00:43;5.32;;;4.07;;
52734;SDS011;38631;47.572;10.704;2023-03-15T06:03:09;7.22;;;4.70;;
52734;SDS011;38631;47.572;10.704;2023-03-15T06:05:34;5.30;;;4.50;;
52734;SDS011;38631;47.572;10.704;2023-03-15T06:07:59;7.43;;;4.75;;
52734;SDS011;38631;47.572;10.704;2023-03-15T06:10:25;9.70;;;6.20;;
52734;SDS011;38631;47.572;10.704;2023-03-15T06:12:50;9.05;;;5.43;;
52734;SDS011;38631;47.572;10.704;2023-03-15T06:15:16;6.82;;;5.43;;
52734;SDS011;38631;47.572;10.704;2023-03-15T06:17:42;5.68;;;4.78;;
52734;SDS011;38631;47.572;10.704;2023-03-15T06:20:07;7.75;;;5.68;;
52734;SDS011;38631;47.572;10.704;2023-03-15T06:22:33;8.32;;;5.90;;
52734;SDS011;38631;47.572;10.704;2023-03-15T06:24:59;7.50;;;5.30;;
52734;SDS011;38631;47.572;10.704;2023-03-15T06:27:24;8.95;;;5.93;;
52734;SDS011;38631;47.572;10.704;2023-03-15T06:29:49;5.55;;;4.40;;
52734;SDS011;38631;47.572;10.704;2023-03-15T06:32:15;6.47;;;4.30;;
52734;SDS011;38631;47.572;10.704;2023-03-15T06:34:40;7.68;;;4.40;;
52734;SDS011;38631;47.572;10.704;2023-03-15T06:37:06;5.72;;;4.38;;
52734;SDS011;38631;47.572;10.704;2023-03-15T06:39:31;7.43;;;4.90;;
52734;SDS011;38631;47.572;10.704;2023-03-15T06:41:58;7.05;;;4.47;;
52734;SDS011;38631;47.572;10.704;2023-03-15T06:44:26;4.78;;;3.90;;
52734;SDS011;38631;47.572;10.704;2023-03-15T06:46:51;7.38;;;4.30;;
52734;SDS011;38631;47.572;10.704;2023-03-15T06:49:17;8.65;;;5.50;;
52734;SDS011;38631;47.572;10.704;2023-03-15T06:51:42;13.68;;;6.30;;
52734;SDS011;38631;47.572;10.704;2023-03-15T06:54:09;9.25;;;5.68;;
52734;SDS011;38631;47.572;10.704;2023-03-15T06:56:35;10.25;;;5.97;;
52734;SDS011;38631;47.572;10.704;2023-03-15T06:59:01;8.48;;;5.85;;
52734;SDS011;38631;47.572;10.704;2023-03-15T07:01:27;9.20;;;5.22;;
52734;SDS011;38631;47.572;10.704;2023-03-15T07:03:52;7.80;;;4.22;;
52734;SDS011;38631;47.572;10.704;2023-03-15T07:06:17;4.35;;;3.70;;
52734;SDS011;38631;47.572;10.704;2023-03-15T07:08:43;6.88;;;4.47;;
52734;SDS011;38631;47.572;10.704;2023-03-15T07:11:08;5.85;;;3.67;;
52734;SDS011;38631;47.572;10.704;2023-03-15T07:13:33;5.15;;;3.80;;
52734;SDS011;38631;47.572;10.704;2023-03-15T07:15:59;7.60;;;4.40;;
52734;SDS011;38631;47.572;10.704;2023-03-15T07:18:24;7.28;;;3.95;;
52734;SDS011;38631;47.572;10.704;2023-03-15T07:20:59;4.80;;;3.78;;
52734;SDS011;38631;47.572;10.704;2023-03-15T07:23:26;5.50;;;4.18;;
52734;SDS011;38631;47.572;10.704;2023-03-15T07:25:52;5.00;;;3.03;;
52734;SDS011;38631;47.572;10.704;2023-03-15T07:28:19;4.20;;;3.00;;
52734;SDS011;38631;47.572;10.704;2023-03-15T07:30:52;5.65;;;3.00;;
52734;SDS011;38631;47.572;10.704;2023-03-15T07:33:18;4.72;;;2.90;;
52734;SDS011;38631;47.572;10.704;2023-03-15T07:35:46;4.55;;;2.78;;
52734;SDS011;38631;47.572;10.704;2023-03-15T07:38:12;4.07;;;2.80;;
52734;SDS011;38631;47.572;10.704;2023-03-15T07:40:37;6.15;;;2.65;;
52734;SDS011;38631;47.572;10.704;2023-03-15T07:43:02;3.75;;;2.47;;
52734;SDS011;38631;47.572;10.704;2023-03-15T07:45:28;4.53;;;3.20;;
52734;SDS011;38631;47.572;10.704;2023-03-15T07:47:53;5.05;;;3.38;;
52734;SDS011;38631;47.572;10.704;2023-03-15T07:50:18;7.47;;;3.53;;
52734;SDS011;38631;47.572;10.704;2023-03-15T07:52:44;6.43;;;3.95;;
52734;SDS011;38631;47.572;10.704;2023-03-15T07:55:09;8.15;;;3.80;;
52734;SDS011;38631;47.572;10.704;2023-03-15T07:57:35;4.25;;;2.92;;
52734;SDS011;38631;47.572;10.704;2023-03-15T08:00:00;5.28;;;2.58;;
52734;SDS011;38631;47.572;10.704;2023-03-15T08:02:25;3.70;;;2.80;;
52734;SDS011;38631;47.572;10.704;2023-03-15T08:04:51;4.00;;;2.70;;
52734;SDS011;38631;47.572;10.704;2023-03-15T08:07:17;6.55;;;2.60;;
52734;SDS011;38631;47.572;10.704;2023-03-15T08:09:42;4.50;;;2.58;;
52734;SDS011;38631;47.572;10.704;2023-03-15T08:12:08;3.72;;;2.58;;
52734;SDS011;38631;47.572;10.704;2023-03-15T08:14:33;4.82;;;2.60;;
52734;SDS011;38631;47.572;10.704;2023-03-15T08:16:59;3.95;;;2.35;;
52734;SDS011;38631;47.572;10.704;2023-03-15T08:19:24;3.05;;;2.30;;
52734;SDS011;38631;47.572;10.704;2023-03-15T08:21:50;2.80;;;2.20;;
52734;SDS011;38631;47.572;10.704;2023-03-15T08:24:17;3.40;;;2.20;;
52734;SDS011;38631;47.572;10.704;2023-03-15T08:26:43;3.20;;;2.20;;
52734;SDS011;38631;47.572;10.704;2023-03-15T08:29:08;4.00;;;2.83;;
52734;SDS011;38631;47.572;10.704;2023-03-15T08:31:34;4.80;;;2.15;;
52734;SDS011;38631;47.572;10.704;2023-03-15T08:33:59;4.80;;;2.47;;
52734;SDS011;38631;47.572;10.704;2023-03-15T08:36:25;4.03;;;2.30;;
52734;SDS011;38631;47.572;10.704;2023-03-15T08:38:50;2.47;;;2.20;;
52734;SDS011;38631;47.572;10.704;2023-03-15T08:41:15;3.75;;;2.13;;
52734;SDS011;38631;47.572;10.704;2023-03-15T08:43:41;3.42;;;2.30;;
52734;SDS011;38631;47.572;10.704;2023-03-15T08:46:06;3.60;;;1.77;;
52734;SDS011;38631;47.572;10.704;2023-03-15T08:48:31;3.17;;;2.20;;
52734;SDS011;38631;47.572;10.704;2023-03-15T08:51:00;4.68;;;2.33;;
52734;SDS011;38631;47.572;10.704;2023-03-15T08:53:30;4.38;;;2.47;;
52734;SDS011;38631;47.572;10.704;2023-03-15T08:55:56;3.08;;;2.20;;
52734;SDS011;38631;47.572;10.704;2023-03-15T08:58:22;3.20;;;2.53;;
52734;SDS011;38631;47.572;10.704;2023-03-15T09:00:48;3.58;;;2.85;;
52734;SDS011;38631;47.572;10.704;2023-03-15T09:03:13;3.13;;;2.15;;
52734;SDS011;38631;47.572;10.704;2023-03-15T09:05:40;3.80;;;2.60;;
52734;SDS011;38631;47.572;10.704;2023-03-15T09:08:05;4.47;;;2.03;;
52734;SDS011;38631;47.572;10.704;2023-03-15T09:10:31;3.60;;;2.55;;
52734;SDS011;38631;47.572;10.704;2023-03-15T09:12:58;3.75;;;2.13;;
52734;SDS011;38631;47.572;10.704;2023-03-15T09:15:23;3.17;;;1.95;;
52734;SDS011;38631;47.572;10.704;2023-03-15T09:17:49;3.28;;;2.22;;
52734;SDS011;38631;47.572;10.704;2023-03-15T09:20:15;3.88;;;2.00;;
52734;SDS011;38631;47.572;10.704;2023-03-15T09:22:49;1.85;;;1.45;;
52734;SDS011;38631;47.572;10.704;2023-03-15T09:25:15;4.22;;;2.05;;
52734;SDS011;38631;47.572;10.704;2023-03-15T09:27:41;3.50;;;1.83;;
52734;SDS011;38631;47.572;10.704;2023-03-15T09:30:07;4.25;;;1.92;;
52734;SDS011;38631;47.572;10.704;2023-03-15T09:32:33;3.00;;;1.88;;
52734;SDS011;38631;47.572;10.704;2023-03-15T09:35:02;4.30;;;1.90;;
52734;SDS011;38631;47.572;10.704;2023-03-15T09:37:28;2.53;;;1.80;;
52734;SDS011;38631;47.572;10.704;2023-03-15T09:39:53;3.03;;;1.80;;
52734;SDS011;38631;47.572;10.704;2023-03-15T09:42:24;2.40;;;1.90;;
52734;SDS011;38631;47.572;10.704;2023-03-15T09:45:24;1.60;;;1.13;;
52734;SDS011;38631;47.572;10.704;2023-03-15T09:53:19;6.03;;;1.52;;
52734;SDS011;38631;47.572;10.704;2023-03-15T09:55:50;2.78;;;1.52;;
52734;SDS011;38631;47.572;10.704;2023-03-15T09:58:17;2.67;;;1.48;;
52734;SDS011;38631;47.572;10.704;2023-03-15T10:00:57;2.13;;;1.20;;
52734;SDS011;38631;47.572;10.704;2023-03-15T10:03:31;1.55;;;1.15;;
52734;SDS011;38631;47.572;10.704;2023-03-15T10:08:45;4.95;;;1.50;;
52734;SDS011;38631;47.572;10.704;2023-03-15T10:13:39;3.28;;;1.40;;
52734;SDS011;38631;47.572;10.704;2023-03-15T10:22:00;1.13;;;0.65;;
52734;SDS011;38631;47.572;10.704;2023-03-15T10:27:33;2.45;;;0.50;;
52734;SDS011;38631;47.572;10.704;2023-03-15T10:30:12;0.95;;;0.50;;
52734;SDS011;38631;47.572;10.704;2023-03-15T10:32:41;0.93;;;0.63;;
52734;SDS011;38631;47.572;10.704;2023-03-15T10:35:11;1.30;;;0.50;;
52734;SDS011;38631;47.572;10.704;2023-03-15T10:37:39;3.85;;;0.57;;
52734;SDS011;38631;47.572;10.704;2023-03-15T10:40:06;0.95;;;0.32;;
52734;SDS011;38631;47.572;10.704;2023-03-15T10:42:39;2.10;;;0.60;;
52734;SDS011;38631;47.572;10.704;2023-03-15T10:45:23;4.05;;;1.40;;
52734;SDS011;38631;47.572;10.704;2023-03-15T10:47:49;2.42;;;1.10;;
52734;SDS011;38631;47.572;10.704;2023-03-15T10:50:26;0.75;;;0.40;;
52734;SDS011;38631;47.572;10.704;2023-03-15T10:52:55;1.15;;;0.30;;
52734;SDS011;38631;47.572;10.704;2023-03-15T10:55:32;2.42;;;0.50;;
52734;SDS011;38631;47.572;10.704;2023-03-15T11:01:12;3.13;;;0.40;;
52734;SDS011;38631;47.572;10.704;2023-03-15T11:03:59;4.60;;;0.50;;
52734;SDS011;38631;47.572;10.704;2023-03-15T11:06:26;2.95;;;0.55;;
52734;SDS011;38631;47.572;10.704;2023-03-15T11:08:53;0.60;;;0.40;;
52734;SDS011;38631;47.572;10.704;2023-03-15T11:11:47;1.75;;;0.32;;
52734;SDS011;38631;47.572;10.704;2023-03-15T11:17:11;1.58;;;0.40;;
52734;SDS011;38631;47.572;10.704;2023-03-15T11:19:43;1.23;;;0.40;;
52734;SDS011;38631;47.572;10.704;2023-03-15T11:22:15;0.57;;;0.28;;
52734;SDS011;38631;47.572;10.704;2023-03-15T11:24:40;0.68;;;0.30;;
52734;SDS011;38631;47.572;10.704;2023-03-15T11:27:10;1.08;;;0.40;;
52734;SDS011;38631;47.572;10.704;2023-03-15T11:29:38;1.08;;;0.40;;
52734;SDS011;38631;47.572;10.704;2023-03-15T11:32:17;0.30;;;0.30;;
52734;SDS011;38631;47.572;10.704;2023-03-15T11:34:55;0.65;;;0.30;;
52734;SDS011;38631;47.572;10.704;2023-03-15T11:37:31;1.33;;;0.38;;
52734;SDS011;38631;47.572;10.704;2023-03-15T11:45:49;1.48;;;0.82;;
52734;SDS011;38631;47.572;10.704;2023-03-15T11:51:04;1.13;;;0.40;;
52734;SDS011;38631;47.572;10.704;2023-03-15T11:53:33;2.30;;;0.98;;
52734;SDS011;38631;47.572;10.704;2023-03-15T11:58:58;2.78;;;0.80;;
52734;SDS011;38631;47.572;10.704;2023-03-15T12:01:30;0.82;;;0.40;;
52734;SDS011;38631;47.572;10.704;2023-03-15T12:06:48;3.55;;;1.02;;
52734;SDS011;38631;47.572;10.704;2023-03-15T12:11:58;0.50;;;0.38;;
52734;SDS011;38631;47.572;10.704;2023-03-15T12:14:31;2.20;;;0.60;;
52734;SDS011;38631;47.572;10.704;2023-03-15T12:19:57;0.68;;;0.40;;
52734;SDS011;38631;47.572;10.704;2023-03-15T12:22:50;1.10;;;0.40;;
52734;SDS011;38631;47.572;10.704;2023-03-15T12:25:37;1.85;;;0.40;;
52734;SDS011;38631;47.572;10.704;2023-03-15T12:28:08;1.00;;;0.50;;
52734;SDS011;38631;47.572;10.704;2023-03-15T12:30:43;1.10;;;0.47;;
52734;SDS011;38631;47.572;10.704;2023-03-15T12:33:19;1.50;;;0.38;;
52734;SDS011;38631;47.572;10.704;2023-03-15T12:35:46;0.35;;;0.20;;
52734;SDS011;38631;47.572;10.704;2023-03-15T12:38:21;0.32;;;0.28;;
52734;SDS011;38631;47.572;10.704;2023-03-15T12:43:33;0.50;;;0.30;;
52734;SDS011;38631;47.572;10.704;2023-03-15T12:46:03;0.32;;;0.30;;
52734;SDS011;38631;47.572;10.704;2023-03-15T12:48:29;0.75;;;0.30;;
52734;SDS011;38631;47.572;10.704;2023-03-15T12:51:01;1.00;;;0.40;;
52734;SDS011;38631;47.572;10.704;2023-03-15T12:59:11;2.13;;;0.32;;
52734;SDS011;38631;47.572;10.704;2023-03-15T13:01:43;0.75;;;0.43;;
52734;SDS011;38631;47.572;10.704;2023-03-15T13:04:09;1.15;;;0.40;;
52734;SDS011;38631;47.572;10.704;2023-03-15T13:06:41;2.67;;;0.65;;
52734;SDS011;38631;47.572;10.704;2023-03-15T13:12:20;0.60;;;0.25;;
52734;SDS011;38631;47.572;10.704;2023-03-15T13:17:23;1.70;;;0.50;;
52734;SDS011;38631;47.572;10.704;2023-03-15T13:20:23;1.00;;;0.35;;
52734;SDS011;38631;47.572;10.704;2023-03-15T13:23:05;0.93;;;0.40;;
52734;SDS011;38631;47.572;10.704;2023-03-15T13:28:53;0.90;;;0.20;;
52734;SDS011;38631;47.572;10.704;2023-03-15T13:31:42;0.52;;;0.30;;
52734;SDS011;38631;47.572;10.704;2023-03-15T13:34:10;1.52;;;0.30;;
52734;SDS011;38631;47.572;10.704;2023-03-15T13:36:41;1.13;;;0.40;;
52734;SDS011;38631;47.572;10.704;2023-03-15T13:39:19;1.40;;;0.50;;
52734;SDS011;38631;47.572;10.704;2023-03-15T13:41:47;1.27;;;0.40;;
52734;SDS011;38631;47.572;10.704;2023-03-15T13:44:15;0.50;;;0.32;;
52734;SDS011;38631;47.572;10.704;2023-03-15T13:46:47;1.23;;;0.32;;
52734;SDS011;38631;47.572;10.704;2023-03-15T13:49:13;1.20;;;0.32;;
52734;SDS011;38631;47.572;10.704;2023-03-15T13:51:39;1.10;;;0.40;;
52734;SDS011;38631;47.572;10.704;2023-03-15T13:54:06;0.95;;;0.40;;
52734;SDS011;38631;47.572;10.704;2023-03-15T13:56:39;1.08;;;0.50;;
52734;SDS011;38631;47.572;10.704;2023-03-15T13:59:19;1.55;;;0.65;;
52734;SDS011;38631;47.572;10.704;2023-03-15T14:01:46;1.27;;;0.50;;
52734;SDS011;38631;47.572;10.704;2023-03-15T14:04:17;1.25;;;0.60;;
52734;SDS011;38631;47.572;10.704;2023-03-15T14:06:44;1.42;;;0.50;;
52734;SDS011;38631;47.572;10.704;2023-03-15T14:09:16;0.93;;;0.30;;
52734;SDS011;38631;47.572;10.704;2023-03-15T14:11:58;4.15;;;0.50;;
52734;SDS011;38631;47.572;10.704;2023-03-15T14:14:29;1.08;;;0.40;;
52734;SDS011;38631;47.572;10.704;2023-03-15T14:16:56;1.85;;;0.40;;
52734;SDS011;38631;47.572;10.704;2023-03-15T14:19:22;1.95;;;0.40;;
52734;SDS011;38631;47.572;10.704;2023-03-15T14:22:01;1.85;;;0.57;;
52734;SDS011;38631;47.572;10.704;2023-03-15T14:24:38;1.05;;;0.43;;
52734;SDS011;38631;47.572;10.704;2023-03-15T14:27:06;0.60;;;0.30;;
52734;SDS011;38631;47.572;10.704;2023-03-15T14:29:37;1.55;;;0.50;;
52734;SDS011;38631;47.572;10.704;2023-03-15T14:32:22;2.05;;;0.60;;
52734;SDS011;38631;47.572;10.704;2023-03-15T14:34:55;1.92;;;0.60;;
52734;SDS011;38631;47.572;10.704;2023-03-15T14:37:31;1.00;;;0.43;;
52734;SDS011;38631;47.572;10.704;2023-03-15T14:42:48;2.40;;;0.60;;
52734;SDS011;38631;47.572;10.704;2023-03-15T14:45:14;0.98;;;0.57;;
52734;SDS011;38631;47.572;10.704;2023-03-15T14:47:45;0.50;;;0.50;;
52734;SDS011;38631;47.572;10.704;2023-03-15T14:50:13;1.08;;;0.40;;
52734;SDS011;38631;47.572;10.704;2023-03-15T14:52:42;1.88;;;0.45;;
52734;SDS011;38631;47.572;10.704;2023-03-15T14:55:12;1.40;;;0.70;;
52734;SDS011;38631;47.572;10.704;2023-03-15T14:57:40;1.25;;;0.50;;
52734;SDS011;38631;47.572;10.704;2023-03-15T15:00:06;0.68;;;0.40;;
52734;SDS011;38631;47.572;10.704;2023-03-15T15:02:35;0.57;;;0.30;;
52734;SDS011;38631;47.572;10.704;2023-03-15T15:05:02;1.40;;;0.47;;
52734;SDS011;38631;47.572;10.704;2023-03-15T15:07:40;1.65;;;1.02;;
52734;SDS011;38631;47.572;10.704;2023-03-15T15:10:05;0.95;;;0.55;;
52734;SDS011;38631;47.572;10.704;2023-03-15T15:12:31;1.73;;;1.30;;
52734;SDS011;38631;47.572;10.704;2023-03-15T15:14:56;2.40;;;1.48;;
52734;SDS011;38631;47.572;10.704;2023-03-15T15:17:21;1.92;;;1.20;;
52734;SDS011;38631;47.572;10.704;2023-03-15T15:19:47;1.75;;;0.90;;
52734;SDS011;38631;47.572;10.704;2023-03-15T15:22:12;2.10;;;0.80;;
52734;SDS011;38631;47.572;10.704;2023-03-15T15:24:38;3.72;;;0.70;;
52734;SDS011;38631;47.572;10.704;2023-03-15T15:27:03;1.23;;;0.60;;
52734;SDS011;38631;47.572;10.704;2023-03-15T15:29:29;2.30;;;1.00;;
52734;SDS011;38631;47.572;10.704;2023-03-15T15:31:54;1.70;;;0.90;;
52734;SDS011;38631;47.572;10.704;2023-03-15T15:34:19;1.35;;;0.80;;
52734;SDS011;38631;47.572;10.704;2023-03-15T15:36:45;1.75;;;0.90;;
52734;SDS011;38631;47.572;10.704;2023-03-15T15:39:14;3.30;;;1.92;;
52734;SDS011;38631;47.572;10.704;2023-03-15T15:41:45;9.38;;;4.13;;
52734;SDS011;38631;47.572;10.704;2023-03-15T15:44:14;2.97;;;1.90;;
52734;SDS011;38631;47.572;10.704;2023-03-15T15:46:41;3.03;;;2.20;;
52734;SDS011;38631;47.572;10.704;2023-03-15T15:49:07;3.00;;;1.75;;
52734;SDS011;38631;47.572;10.704;2023-03-15T15:51:38;1.38;;;1.00;;
52734;SDS011;38631;47.572;10.704;2023-03-15T15:54:11;2.50;;;1.60;;
52734;SDS011;38631;47.572;10.704;2023-03-15T15:56:40;2.00;;;1.10;;
52734;SDS011;38631;47.572;10.704;2023-03-15T15:59:12;7.65;;;3.83;;
52734;SDS011;38631;47.572;10.704;2023-03-15T16:01:39;11.23;;;6.85;;